sensor_id;sensor_type;location;lat;lon;timestamp;P1;durP1;ratioP1;P2;durP2;ratioP2
34711;SDS011;20941;42.408;25.634;2023-02-28T00:01:31;24.58;;;13.57;;
34711;SDS011;20941;42.408;25.634;2023-02-28T00:03:57;26.83;;;14.13;;
34711;SDS011;20941;42.408;25.634;2023-02-28T00:06:26;22.75;;;11.23;;
34711;SDS011;20941;42.408;25.634;2023-02-28T00:08:51;19.45;;;8.68;;
34711;SDS011;20941;42.408;25.634;2023-02-28T00:11:16;27.85;;;14.07;;
34711;SDS011;20941;42.408;25.634;2023-02-28T00:13:45;27.42;;;13.93;;
34711;SDS011;20941;42.408;25.634;2023-02-28T00:16:15;31.05;;;14.57;;
34711;SDS011;20941;42.408;25.634;2023-02-28T00:18:41;26.45;;;13.98;;
34711;SDS011;20941;42.408;25.634;2023-02-28T00:21:06;26.35;;;14.30;;
34711;SDS011;20941;42.408;25.634;2023-02-28T00:23:32;28.48;;;14.10;;
34711;SDS011;20941;42.408;25.634;2023-02-28T00:25:57;26.45;;;14.43;;
34711;SDS011;20941;42.408;25.634;2023-02-28T00:28:23;23.88;;;13.75;;
34711;SDS011;20941;42.408;25.634;2023-02-28T00:30:48;25.80;;;13.27;;
34711;SDS011;20941;42.408;25.634;2023-02-28T00:33:13;32.15;;;14.70;;
34711;SDS011;20941;42.408;25.634;2023-02-28T00:35:39;29.20;;;14.27;;
34711;SDS011;20941;42.408;25.634;2023-02-28T00:38:04;30.05;;;15.32;;
34711;SDS011;20941;42.408;25.634;2023-02-28T00:40:29;38.10;;;15.15;;
34711;SDS011;20941;42.408;25.634;2023-02-28T00:42:55;33.20;;;14.88;;
34711;SDS011;20941;42.408;25.634;2023-02-28T00:45:20;40.13;;;15.68;;
34711;SDS011;20941;42.408;25.634;2023-02-28T00:47:46;26.25;;;14.48;;
34711;SDS011;20941;42.408;25.634;2023-02-28T00:50:18;29.60;;;16.00;;
34711;SDS011;20941;42.408;25.634;2023-02-28T00:52:44;28.17;;;15.02;;
34711;SDS011;20941;42.408;25.634;2023-02-28T00:55:09;34.80;;;14.15;;
34711;SDS011;20941;42.408;25.634;2023-02-28T00:57:35;35.90;;;16.05;;
34711;SDS011;20941;42.408;25.634;2023-02-28T01:00:00;33.33;;;16.60;;
34711;SDS011;20941;42.408;25.634;2023-02-28T01:02:26;37.75;;;15.88;;
34711;SDS011;20941;42.408;25.634;2023-02-28T01:04:51;32.17;;;15.65;;
34711;SDS011;20941;42.408;25.634;2023-02-28T01:07:17;36.42;;;16.52;;
34711;SDS011;20941;42.408;25.634;2023-02-28T01:09:42;30.13;;;15.60;;
34711;SDS011;20941;42.408;25.634;2023-02-28T01:12:08;26.27;;;14.80;;
34711;SDS011;20941;42.408;25.634;2023-02-28T01:14:33;26.73;;;13.82;;
34711;SDS011;20941;42.408;25.634;2023-02-28T01:16:59;31.73;;;15.30;;
34711;SDS011;20941;42.408;25.634;2023-02-28T01:19:25;36.78;;;17.15;;
34711;SDS011;20941;42.408;25.634;2023-02-28T01:21:50;30.90;;;17.15;;
34711;SDS011;20941;42.408;25.634;2023-02-28T01:24:15;32.60;;;15.45;;
34711;SDS011;20941;42.408;25.634;2023-02-28T01:26:40;35.78;;;16.77;;
34711;SDS011;20941;42.408;25.634;2023-02-28T01:29:06;31.27;;;16.42;;
34711;SDS011;20941;42.408;25.634;2023-02-28T01:31:31;31.42;;;16.17;;
34711;SDS011;20941;42.408;25.634;2023-02-28T01:33:56;29.02;;;14.70;;
34711;SDS011;20941;42.408;25.634;2023-02-28T01:36:23;34.25;;;14.85;;
34711;SDS011;20941;42.408;25.634;2023-02-28T01:38:49;37.80;;;16.60;;
34711;SDS011;20941;42.408;25.634;2023-02-28T01:41:16;31.38;;;15.18;;
34711;SDS011;20941;42.408;25.634;2023-02-28T01:46:07;36.90;;;16.17;;
34711;SDS011;20941;42.408;25.634;2023-02-28T01:48:34;25.52;;;13.10;;
34711;SDS011;20941;42.408;25.634;2023-02-28T01:51:01;28.88;;;15.15;;
34711;SDS011;20941;42.408;25.634;2023-02-28T01:53:38;31.08;;;15.27;;
34711;SDS011;20941;42.408;25.634;2023-02-28T01:56:07;27.08;;;13.65;;
34711;SDS011;20941;42.408;25.634;2023-02-28T01:58:34;28.02;;;14.27;;
34711;SDS011;20941;42.408;25.634;2023-02-28T02:00:59;30.40;;;14.50;;
34711;SDS011;20941;42.408;25.634;2023-02-28T02:03:25;31.35;;;15.07;;
34711;SDS011;20941;42.408;25.634;2023-02-28T02:05:50;29.80;;;14.38;;
34711;SDS011;20941;42.408;25.634;2023-02-28T02:08:25;30.30;;;14.63;;
34711;SDS011;20941;42.408;25.634;2023-02-28T02:10:52;29.75;;;14.75;;
34711;SDS011;20941;42.408;25.634;2023-02-28T02:18:30;25.23;;;13.15;;
34711;SDS011;20941;42.408;25.634;2023-02-28T02:21:11;32.50;;;14.32;;
34711;SDS011;20941;42.408;25.634;2023-02-28T02:24:20;28.42;;;13.45;;
34711;SDS011;20941;42.408;25.634;2023-02-28T02:29:34;26.73;;;13.95;;
34711;SDS011;20941;42.408;25.634;2023-02-28T02:37:08;28.30;;;13.60;;
34711;SDS011;20941;42.408;25.634;2023-02-28T02:42:01;32.20;;;11.93;;
34711;SDS011;20941;42.408;25.634;2023-02-28T02:47:18;21.83;;;11.57;;
34711;SDS011;20941;42.408;25.634;2023-02-28T02:49:51;23.92;;;12.55;;
34711;SDS011;20941;42.408;25.634;2023-02-28T02:52:18;24.73;;;12.00;;
34711;SDS011;20941;42.408;25.634;2023-02-28T02:54:44;24.30;;;11.82;;
34711;SDS011;20941;42.408;25.634;2023-02-28T02:57:11;24.10;;;10.65;;
34711;SDS011;20941;42.408;25.634;2023-02-28T02:59:39;21.67;;;11.35;;
34711;SDS011;20941;42.408;25.634;2023-02-28T03:02:05;26.38;;;12.68;;
34711;SDS011;20941;42.408;25.634;2023-02-28T03:04:33;26.85;;;12.50;;
34711;SDS011;20941;42.408;25.634;2023-02-28T03:06:59;20.05;;;9.68;;
34711;SDS011;20941;42.408;25.634;2023-02-28T03:09:25;25.75;;;12.23;;
34711;SDS011;20941;42.408;25.634;2023-02-28T03:11:52;21.95;;;11.73;;
34711;SDS011;20941;42.408;25.634;2023-02-28T03:16:56;26.48;;;12.75;;
34711;SDS011;20941;42.408;25.634;2023-02-28T03:29:50;20.50;;;9.38;;
34711;SDS011;20941;42.408;25.634;2023-02-28T03:32:21;26.92;;;12.80;;
34711;SDS011;20941;42.408;25.634;2023-02-28T03:34:55;12.95;;;6.13;;
34711;SDS011;20941;42.408;25.634;2023-02-28T03:37:22;25.83;;;13.20;;
34711;SDS011;20941;42.408;25.634;2023-02-28T03:39:51;28.75;;;13.68;;
34711;SDS011;20941;42.408;25.634;2023-02-28T03:42:19;28.33;;;12.95;;
34711;SDS011;20941;42.408;25.634;2023-02-28T03:44:58;25.75;;;13.77;;
34711;SDS011;20941;42.408;25.634;2023-02-28T03:47:29;27.75;;;12.48;;
34711;SDS011;20941;42.408;25.634;2023-02-28T03:49:58;22.70;;;10.80;;
34711;SDS011;20941;42.408;25.634;2023-02-28T03:52:27;26.27;;;12.45;;
34711;SDS011;20941;42.408;25.634;2023-02-28T03:54:54;13.30;;;6.78;;
34711;SDS011;20941;42.408;25.634;2023-02-28T03:59:50;24.52;;;12.30;;
34711;SDS011;20941;42.408;25.634;2023-02-28T04:02:18;29.75;;;13.80;;
34711;SDS011;20941;42.408;25.634;2023-02-28T04:04:43;28.00;;;13.80;;
34711;SDS011;20941;42.408;25.634;2023-02-28T04:07:10;24.00;;;12.63;;
34711;SDS011;20941;42.408;25.634;2023-02-28T04:09:36;16.50;;;7.90;;
34711;SDS011;20941;42.408;25.634;2023-02-28T04:12:01;20.92;;;10.65;;
34711;SDS011;20941;42.408;25.634;2023-02-28T04:14:27;29.33;;;12.88;;
34711;SDS011;20941;42.408;25.634;2023-02-28T04:16:52;30.23;;;13.25;;
34711;SDS011;20941;42.408;25.634;2023-02-28T04:19:17;27.48;;;13.77;;
34711;SDS011;20941;42.408;25.634;2023-02-28T04:21:44;28.95;;;14.57;;
34711;SDS011;20941;42.408;25.634;2023-02-28T04:24:10;34.60;;;14.65;;
34711;SDS011;20941;42.408;25.634;2023-02-28T04:26:39;24.70;;;13.25;;
34711;SDS011;20941;42.408;25.634;2023-02-28T04:29:06;26.95;;;12.93;;
34711;SDS011;20941;42.408;25.634;2023-02-28T04:31:32;32.17;;;13.52;;
34711;SDS011;20941;42.408;25.634;2023-02-28T04:33:58;27.63;;;13.50;;
34711;SDS011;20941;42.408;25.634;2023-02-28T04:36:23;27.70;;;12.98;;
34711;SDS011;20941;42.408;25.634;2023-02-28T04:38:48;23.13;;;9.95;;
34711;SDS011;20941;42.408;25.634;2023-02-28T04:41:14;28.63;;;12.90;;
34711;SDS011;20941;42.408;25.634;2023-02-28T04:43:39;20.90;;;9.77;;
34711;SDS011;20941;42.408;25.634;2023-02-28T04:46:05;30.30;;;13.38;;
34711;SDS011;20941;42.408;25.634;2023-02-28T04:48:31;28.67;;;13.55;;
34711;SDS011;20941;42.408;25.634;2023-02-28T04:51:00;28.10;;;13.40;;
34711;SDS011;20941;42.408;25.634;2023-02-28T04:53:27;31.30;;;14.85;;
34711;SDS011;20941;42.408;25.634;2023-02-28T04:55:52;26.95;;;14.05;;
34711;SDS011;20941;42.408;25.634;2023-02-28T04:58:18;34.55;;;13.85;;
34711;SDS011;20941;42.408;25.634;2023-02-28T05:00:43;25.30;;;13.07;;
34711;SDS011;20941;42.408;25.634;2023-02-28T05:03:08;29.92;;;15.20;;
34711;SDS011;20941;42.408;25.634;2023-02-28T05:05:34;20.98;;;10.68;;
34711;SDS011;20941;42.408;25.634;2023-02-28T05:08:00;28.38;;;13.25;;
34711;SDS011;20941;42.408;25.634;2023-02-28T05:10:25;27.25;;;14.18;;
34711;SDS011;20941;42.408;25.634;2023-02-28T05:12:50;29.65;;;14.40;;
34711;SDS011;20941;42.408;25.634;2023-02-28T05:15:16;32.70;;;14.43;;
34711;SDS011;20941;42.408;25.634;2023-02-28T05:17:42;35.20;;;15.80;;
34711;SDS011;20941;42.408;25.634;2023-02-28T05:20:08;31.33;;;14.20;;
34711;SDS011;20941;42.408;25.634;2023-02-28T05:22:36;33.40;;;14.73;;
34711;SDS011;20941;42.408;25.634;2023-02-28T05:25:01;31.42;;;14.35;;
34711;SDS011;20941;42.408;25.634;2023-02-28T05:27:27;34.45;;;15.40;;
34711;SDS011;20941;42.408;25.634;2023-02-28T05:29:53;27.67;;;14.82;;
34711;SDS011;20941;42.408;25.634;2023-02-28T05:32:18;30.00;;;15.13;;
34711;SDS011;20941;42.408;25.634;2023-02-28T05:34:43;34.88;;;14.95;;
34711;SDS011;20941;42.408;25.634;2023-02-28T05:37:11;32.95;;;15.40;;
34711;SDS011;20941;42.408;25.634;2023-02-28T05:39:36;38.10;;;14.75;;
34711;SDS011;20941;42.408;25.634;2023-02-28T05:42:02;24.98;;;13.57;;
34711;SDS011;20941;42.408;25.634;2023-02-28T05:44:27;33.10;;;14.60;;
34711;SDS011;20941;42.408;25.634;2023-02-28T05:46:53;33.03;;;14.93;;
34711;SDS011;20941;42.408;25.634;2023-02-28T05:49:18;30.45;;;14.02;;
34711;SDS011;20941;42.408;25.634;2023-02-28T05:51:43;34.08;;;16.20;;
34711;SDS011;20941;42.408;25.634;2023-02-28T05:54:09;35.67;;;15.80;;
34711;SDS011;20941;42.408;25.634;2023-02-28T05:56:34;31.55;;;15.10;;
34711;SDS011;20941;42.408;25.634;2023-02-28T05:59:00;30.95;;;13.85;;
34711;SDS011;20941;42.408;25.634;2023-02-28T06:01:31;21.33;;;10.95;;
34711;SDS011;20941;42.408;25.634;2023-02-28T06:03:56;29.25;;;13.75;;
34711;SDS011;20941;42.408;25.634;2023-02-28T06:06:21;33.75;;;13.93;;
34711;SDS011;20941;42.408;25.634;2023-02-28T06:08:47;26.63;;;12.90;;
34711;SDS011;20941;42.408;25.634;2023-02-28T06:11:13;32.17;;;14.70;;
34711;SDS011;20941;42.408;25.634;2023-02-28T06:13:38;20.73;;;11.45;;
34711;SDS011;20941;42.408;25.634;2023-02-28T06:16:04;24.00;;;12.50;;
34711;SDS011;20941;42.408;25.634;2023-02-28T06:18:29;22.85;;;12.68;;
34711;SDS011;20941;42.408;25.634;2023-02-28T06:20:54;24.80;;;11.38;;
34711;SDS011;20941;42.408;25.634;2023-02-28T06:23:20;33.08;;;13.82;;
34711;SDS011;20941;42.408;25.634;2023-02-28T06:25:46;27.73;;;14.95;;
34711;SDS011;20941;42.408;25.634;2023-02-28T06:28:11;25.40;;;12.52;;
34711;SDS011;20941;42.408;25.634;2023-02-28T06:30:37;28.95;;;14.27;;
34711;SDS011;20941;42.408;25.634;2023-02-28T06:33:02;23.33;;;12.43;;
34711;SDS011;20941;42.408;25.634;2023-02-28T06:35:28;29.73;;;12.95;;
34711;SDS011;20941;42.408;25.634;2023-02-28T06:37:54;32.35;;;13.85;;
34711;SDS011;20941;42.408;25.634;2023-02-28T06:40:20;27.00;;;12.93;;
34711;SDS011;20941;42.408;25.634;2023-02-28T06:42:45;24.40;;;11.88;;
34711;SDS011;20941;42.408;25.634;2023-02-28T06:45:11;24.50;;;12.30;;
34711;SDS011;20941;42.408;25.634;2023-02-28T06:47:37;28.00;;;12.38;;
34711;SDS011;20941;42.408;25.634;2023-02-28T06:50:03;29.23;;;13.07;;
34711;SDS011;20941;42.408;25.634;2023-02-28T06:52:29;28.25;;;13.32;;
34711;SDS011;20941;42.408;25.634;2023-02-28T06:54:55;22.75;;;10.75;;
34711;SDS011;20941;42.408;25.634;2023-02-28T06:57:28;27.45;;;12.18;;
34711;SDS011;20941;42.408;25.634;2023-02-28T06:59:56;24.70;;;12.05;;
34711;SDS011;20941;42.408;25.634;2023-02-28T07:02:21;22.80;;;12.57;;
34711;SDS011;20941;42.408;25.634;2023-02-28T07:04:46;19.00;;;10.88;;
34711;SDS011;20941;42.408;25.634;2023-02-28T07:07:12;22.30;;;11.85;;
34711;SDS011;20941;42.408;25.634;2023-02-28T07:09:37;30.67;;;13.80;;
34711;SDS011;20941;42.408;25.634;2023-02-28T07:12:03;26.35;;;13.02;;
34711;SDS011;20941;42.408;25.634;2023-02-28T07:14:28;24.08;;;11.80;;
34711;SDS011;20941;42.408;25.634;2023-02-28T07:16:53;28.20;;;12.85;;
34711;SDS011;20941;42.408;25.634;2023-02-28T07:19:19;29.83;;;12.40;;
34711;SDS011;20941;42.408;25.634;2023-02-28T07:21:45;28.30;;;11.73;;
34711;SDS011;20941;42.408;25.634;2023-02-28T07:24:10;22.80;;;10.95;;
34711;SDS011;20941;42.408;25.634;2023-02-28T07:26:35;26.30;;;11.77;;
34711;SDS011;20941;42.408;25.634;2023-02-28T07:29:01;25.48;;;12.88;;
34711;SDS011;20941;42.408;25.634;2023-02-28T07:31:27;27.02;;;13.63;;
34711;SDS011;20941;42.408;25.634;2023-02-28T07:33:52;24.58;;;13.40;;
34711;SDS011;20941;42.408;25.634;2023-02-28T07:36:19;30.85;;;15.23;;
34711;SDS011;20941;42.408;25.634;2023-02-28T07:38:45;31.38;;;14.32;;
34711;SDS011;20941;42.408;25.634;2023-02-28T07:41:13;24.45;;;12.50;;
34711;SDS011;20941;42.408;25.634;2023-02-28T07:43:38;22.42;;;12.48;;
34711;SDS011;20941;42.408;25.634;2023-02-28T07:46:08;26.20;;;12.63;;
34711;SDS011;20941;42.408;25.634;2023-02-28T07:48:33;28.60;;;13.38;;
34711;SDS011;20941;42.408;25.634;2023-02-28T07:50:59;28.85;;;13.55;;
34711;SDS011;20941;42.408;25.634;2023-02-28T07:53:25;28.27;;;12.90;;
34711;SDS011;20941;42.408;25.634;2023-02-28T07:55:51;28.10;;;12.98;;
34711;SDS011;20941;42.408;25.634;2023-02-28T07:58:16;21.63;;;11.77;;
34711;SDS011;20941;42.408;25.634;2023-02-28T08:00:41;32.88;;;13.13;;
34711;SDS011;20941;42.408;25.634;2023-02-28T08:03:08;33.38;;;14.10;;
34711;SDS011;20941;42.408;25.634;2023-02-28T08:05:37;26.35;;;13.77;;
34711;SDS011;20941;42.408;25.634;2023-02-28T08:08:03;33.15;;;15.13;;
34711;SDS011;20941;42.408;25.634;2023-02-28T08:10:28;35.15;;;16.35;;
34711;SDS011;20941;42.408;25.634;2023-02-28T08:12:54;33.60;;;16.25;;
34711;SDS011;20941;42.408;25.634;2023-02-28T08:15:19;27.88;;;14.23;;
34711;SDS011;20941;42.408;25.634;2023-02-28T08:17:44;26.10;;;14.02;;
34711;SDS011;20941;42.408;25.634;2023-02-28T08:20:10;30.95;;;14.25;;
34711;SDS011;20941;42.408;25.634;2023-02-28T08:22:35;32.55;;;14.85;;
34711;SDS011;20941;42.408;25.634;2023-02-28T08:25:01;34.15;;;16.30;;
34711;SDS011;20941;42.408;25.634;2023-02-28T08:27:26;23.42;;;13.30;;
34711;SDS011;20941;42.408;25.634;2023-02-28T08:29:51;27.17;;;13.88;;
34711;SDS011;20941;42.408;25.634;2023-02-28T08:32:17;38.65;;;16.10;;
34711;SDS011;20941;42.408;25.634;2023-02-28T08:34:42;31.70;;;15.40;;
34711;SDS011;20941;42.408;25.634;2023-02-28T08:37:07;31.38;;;14.85;;
34711;SDS011;20941;42.408;25.634;2023-02-28T08:39:36;29.33;;;15.02;;
34711;SDS011;20941;42.408;25.634;2023-02-28T08:42:02;25.15;;;13.75;;
34711;SDS011;20941;42.408;25.634;2023-02-28T08:44:27;25.80;;;13.48;;
34711;SDS011;20941;42.408;25.634;2023-02-28T08:46:53;26.10;;;13.70;;
34711;SDS011;20941;42.408;25.634;2023-02-28T08:49:18;29.60;;;14.20;;
34711;SDS011;20941;42.408;25.634;2023-02-28T08:51:44;24.65;;;13.00;;
34711;SDS011;20941;42.408;25.634;2023-02-28T08:54:09;21.65;;;11.40;;
34711;SDS011;20941;42.408;25.634;2023-02-28T08:56:37;21.17;;;11.68;;
34711;SDS011;20941;42.408;25.634;2023-02-28T08:59:03;22.38;;;12.48;;
34711;SDS011;20941;42.408;25.634;2023-02-28T09:01:29;26.33;;;11.27;;
34711;SDS011;20941;42.408;25.634;2023-02-28T09:03:55;22.00;;;10.27;;
34711;SDS011;20941;42.408;25.634;2023-02-28T09:06:21;21.77;;;10.98;;
34711;SDS011;20941;42.408;25.634;2023-02-28T09:08:47;26.60;;;11.52;;
34711;SDS011;20941;42.408;25.634;2023-02-28T09:11:12;27.50;;;13.07;;
34711;SDS011;20941;42.408;25.634;2023-02-28T09:13:38;22.65;;;11.68;;
34711;SDS011;20941;42.408;25.634;2023-02-28T09:16:04;21.30;;;11.35;;
34711;SDS011;20941;42.408;25.634;2023-02-28T09:18:30;23.02;;;11.52;;
34711;SDS011;20941;42.408;25.634;2023-02-28T09:20:56;19.67;;;9.70;;
34711;SDS011;20941;42.408;25.634;2023-02-28T09:23:22;30.60;;;15.52;;
34711;SDS011;20941;42.408;25.634;2023-02-28T09:25:49;26.42;;;14.65;;
34711;SDS011;20941;42.408;25.634;2023-02-28T09:28:16;21.50;;;12.27;;
34711;SDS011;20941;42.408;25.634;2023-02-28T09:30:42;22.60;;;12.55;;
34711;SDS011;20941;42.408;25.634;2023-02-28T09:33:08;24.80;;;12.02;;
34711;SDS011;20941;42.408;25.634;2023-02-28T09:35:34;21.67;;;11.18;;
34711;SDS011;20941;42.408;25.634;2023-02-28T09:38:03;21.70;;;10.35;;
34711;SDS011;20941;42.408;25.634;2023-02-28T09:40:28;23.55;;;11.43;;
34711;SDS011;20941;42.408;25.634;2023-02-28T09:42:54;26.50;;;12.18;;
34711;SDS011;20941;42.408;25.634;2023-02-28T09:45:28;20.02;;;11.63;;
34711;SDS011;20941;42.408;25.634;2023-02-28T09:47:56;21.95;;;10.55;;
34711;SDS011;20941;42.408;25.634;2023-02-28T09:52:48;23.10;;;11.00;;
34711;SDS011;20941;42.408;25.634;2023-02-28T09:57:41;22.60;;;11.07;;
34711;SDS011;20941;42.408;25.634;2023-02-28T10:02:46;22.02;;;12.23;;
34711;SDS011;20941;42.408;25.634;2023-02-28T10:05:15;22.70;;;11.00;;
34711;SDS011;20941;42.408;25.634;2023-02-28T10:08:05;20.92;;;8.57;;
34711;SDS011;20941;42.408;25.634;2023-02-28T10:15:39;21.55;;;10.60;;
34711;SDS011;20941;42.408;25.634;2023-02-28T10:18:06;17.42;;;10.20;;
34711;SDS011;20941;42.408;25.634;2023-02-28T10:20:36;18.23;;;10.02;;
34711;SDS011;20941;42.408;25.634;2023-02-28T10:23:09;19.08;;;9.63;;
34711;SDS011;20941;42.408;25.634;2023-02-28T10:25:37;12.50;;;7.10;;
34711;SDS011;20941;42.408;25.634;2023-02-28T10:28:11;15.98;;;8.57;;
34711;SDS011;20941;42.408;25.634;2023-02-28T10:30:37;13.63;;;8.98;;
34711;SDS011;20941;42.408;25.634;2023-02-28T10:33:04;15.40;;;8.80;;
34711;SDS011;20941;42.408;25.634;2023-02-28T10:35:29;16.25;;;9.93;;
34711;SDS011;20941;42.408;25.634;2023-02-28T10:37:56;14.85;;;8.77;;
34711;SDS011;20941;42.408;25.634;2023-02-28T10:43:11;15.48;;;9.57;;
34711;SDS011;20941;42.408;25.634;2023-02-28T10:45:35;18.27;;;9.13;;
34711;SDS011;20941;42.408;25.634;2023-02-28T10:48:03;13.18;;;7.97;;
34711;SDS011;20941;42.408;25.634;2023-02-28T10:50:32;16.48;;;9.00;;
34711;SDS011;20941;42.408;25.634;2023-02-28T10:55:35;21.08;;;9.95;;
34711;SDS011;20941;42.408;25.634;2023-02-28T10:58:01;23.25;;;10.15;;
34711;SDS011;20941;42.408;25.634;2023-02-28T11:00:31;19.60;;;10.20;;
34711;SDS011;20941;42.408;25.634;2023-02-28T11:02:57;19.40;;;9.38;;
34711;SDS011;20941;42.408;25.634;2023-02-28T11:05:32;16.90;;;8.93;;
34711;SDS011;20941;42.408;25.634;2023-02-28T11:08:06;21.75;;;10.52;;
34711;SDS011;20941;42.408;25.634;2023-02-28T11:10:35;17.13;;;9.18;;
34711;SDS011;20941;42.408;25.634;2023-02-28T11:13:01;15.43;;;9.85;;
34711;SDS011;20941;42.408;25.634;2023-02-28T11:15:28;16.30;;;9.73;;
34711;SDS011;20941;42.408;25.634;2023-02-28T11:20:23;20.42;;;10.20;;
34711;SDS011;20941;42.408;25.634;2023-02-28T11:22:50;18.75;;;10.38;;
34711;SDS011;20941;42.408;25.634;2023-02-28T11:25:37;17.85;;;9.90;;
34711;SDS011;20941;42.408;25.634;2023-02-28T11:28:02;18.58;;;9.90;;
34711;SDS011;20941;42.408;25.634;2023-02-28T11:32:55;17.75;;;10.55;;
34711;SDS011;20941;42.408;25.634;2023-02-28T11:35:30;20.70;;;9.57;;
34711;SDS011;20941;42.408;25.634;2023-02-28T11:37:57;19.45;;;10.38;;
34711;SDS011;20941;42.408;25.634;2023-02-28T11:40:25;19.23;;;10.63;;
34711;SDS011;20941;42.408;25.634;2023-02-28T11:43:06;16.00;;;9.02;;
34711;SDS011;20941;42.408;25.634;2023-02-28T11:45:43;22.50;;;11.68;;
34711;SDS011;20941;42.408;25.634;2023-02-28T11:48:16;22.35;;;11.98;;
34711;SDS011;20941;42.408;25.634;2023-02-28T11:53:24;21.10;;;11.90;;
34711;SDS011;20941;42.408;25.634;2023-02-28T14:34:54;40.38;;;17.67;;
34711;SDS011;20941;42.408;25.634;2023-02-28T14:37:26;38.40;;;18.52;;
34711;SDS011;20941;42.408;25.634;2023-02-28T14:39:52;42.05;;;18.73;;
34711;SDS011;20941;42.408;25.634;2023-02-28T14:44:55;42.22;;;18.92;;
34711;SDS011;20941;42.408;25.634;2023-02-28T14:47:25;37.85;;;18.17;;
34711;SDS011;20941;42.408;25.634;2023-02-28T14:49:52;35.50;;;18.13;;
34711;SDS011;20941;42.408;25.634;2023-02-28T14:52:24;36.75;;;18.05;;
34711;SDS011;20941;42.408;25.634;2023-02-28T14:54:51;28.23;;;14.68;;
34711;SDS011;20941;42.408;25.634;2023-02-28T14:57:27;31.80;;;15.30;;
34711;SDS011;20941;42.408;25.634;2023-02-28T15:02:25;27.95;;;15.05;;
34711;SDS011;20941;42.408;25.634;2023-02-28T15:04:57;33.05;;;15.68;;
34711;SDS011;20941;42.408;25.634;2023-02-28T15:07:23;34.78;;;15.13;;
34711;SDS011;20941;42.408;25.634;2023-02-28T15:12:37;26.30;;;12.68;;
34711;SDS011;20941;42.408;25.634;2023-02-28T15:15:04;26.60;;;13.95;;
34711;SDS011;20941;42.408;25.634;2023-02-28T15:17:30;28.65;;;14.30;;
34711;SDS011;20941;42.408;25.634;2023-02-28T15:19:56;29.42;;;15.32;;
34711;SDS011;20941;42.408;25.634;2023-02-28T15:22:29;23.55;;;13.52;;
34711;SDS011;20941;42.408;25.634;2023-02-28T15:24:56;28.13;;;13.73;;
34711;SDS011;20941;42.408;25.634;2023-02-28T15:27:23;26.45;;;14.02;;
34711;SDS011;20941;42.408;25.634;2023-02-28T15:29:51;29.17;;;15.25;;
34711;SDS011;20941;42.408;25.634;2023-02-28T15:32:29;23.50;;;13.43;;
34711;SDS011;20941;42.408;25.634;2023-02-28T15:34:55;25.60;;;13.32;;
34711;SDS011;20941;42.408;25.634;2023-02-28T15:37:40;22.98;;;12.10;;
34711;SDS011;20941;42.408;25.634;2023-02-28T15:46:07;25.77;;;12.65;;
34711;SDS011;20941;42.408;25.634;2023-02-28T15:48:15;22.08;;;12.70;;
34711;SDS011;20941;42.408;25.634;2023-02-28T15:50:40;22.05;;;11.98;;
34711;SDS011;20941;42.408;25.634;2023-02-28T15:53:11;26.25;;;12.63;;
34711;SDS011;20941;42.408;25.634;2023-02-28T15:55:37;23.65;;;13.05;;
34711;SDS011;20941;42.408;25.634;2023-02-28T15:58:03;19.77;;;10.90;;
34711;SDS011;20941;42.408;25.634;2023-02-28T16:00:30;21.48;;;12.85;;
34711;SDS011;20941;42.408;25.634;2023-02-28T16:02:58;22.67;;;12.82;;
34711;SDS011;20941;42.408;25.634;2023-02-28T16:05:27;24.58;;;12.85;;
34711;SDS011;20941;42.408;25.634;2023-02-28T16:07:56;22.52;;;12.45;;
34711;SDS011;20941;42.408;25.634;2023-02-28T16:10:22;22.85;;;12.52;;
34711;SDS011;20941;42.408;25.634;2023-02-28T16:12:51;33.60;;;13.25;;
34711;SDS011;20941;42.408;25.634;2023-02-28T16:15:21;26.13;;;13.38;;
34711;SDS011;20941;42.408;25.634;2023-02-28T16:17:47;25.55;;;13.25;;
34711;SDS011;20941;42.408;25.634;2023-02-28T16:20:13;26.35;;;13.63;;
34711;SDS011;20941;42.408;25.634;2023-02-28T16:22:39;17.27;;;10.70;;
34711;SDS011;20941;42.408;25.634;2023-02-28T16:25:07;24.05;;;13.40;;
34711;SDS011;20941;42.408;25.634;2023-02-28T16:27:35;25.30;;;13.45;;
34711;SDS011;20941;42.408;25.634;2023-02-28T16:30:01;25.45;;;12.68;;
34711;SDS011;20941;42.408;25.634;2023-02-28T16:32:26;23.10;;;11.85;;
34711;SDS011;20941;42.408;25.634;2023-02-28T16:34:52;25.95;;;12.80;;
34711;SDS011;20941;42.408;25.634;2023-02-28T16:37:17;25.80;;;13.35;;
34711;SDS011;20941;42.408;25.634;2023-02-28T16:39:44;27.02;;;13.30;;
34711;SDS011;20941;42.408;25.634;2023-02-28T16:42:16;26.20;;;12.05;;
34711;SDS011;20941;42.408;25.634;2023-02-28T16:44:42;26.05;;;14.07;;
34711;SDS011;20941;42.408;25.634;2023-02-28T16:47:09;17.52;;;9.52;;
34711;SDS011;20941;42.408;25.634;2023-02-28T16:49:35;22.92;;;12.25;;
34711;SDS011;20941;42.408;25.634;2023-02-28T16:52:00;28.63;;;13.15;;
34711;SDS011;20941;42.408;25.634;2023-02-28T16:54:25;27.08;;;13.85;;
34711;SDS011;20941;42.408;25.634;2023-02-28T16:56:51;26.20;;;12.75;;
34711;SDS011;20941;42.408;25.634;2023-02-28T16:59:23;22.10;;;11.40;;
34711;SDS011;20941;42.408;25.634;2023-02-28T17:01:49;30.27;;;14.30;;
34711;SDS011;20941;42.408;25.634;2023-02-28T17:04:15;27.30;;;12.95;;
34711;SDS011;20941;42.408;25.634;2023-02-28T17:06:40;22.52;;;12.95;;
34711;SDS011;20941;42.408;25.634;2023-02-28T17:09:08;24.55;;;12.13;;
34711;SDS011;20941;42.408;25.634;2023-02-28T17:11:39;25.60;;;13.00;;
34711;SDS011;20941;42.408;25.634;2023-02-28T17:14:04;30.30;;;13.82;;
34711;SDS011;20941;42.408;25.634;2023-02-28T17:16:30;28.63;;;12.60;;
34711;SDS011;20941;42.408;25.634;2023-02-28T17:18:58;23.85;;;13.00;;
34711;SDS011;20941;42.408;25.634;2023-02-28T17:21:24;24.65;;;12.27;;
34711;SDS011;20941;42.408;25.634;2023-02-28T17:23:49;25.10;;;11.93;;
34711;SDS011;20941;42.408;25.634;2023-02-28T17:26:16;25.45;;;11.80;;
34711;SDS011;20941;42.408;25.634;2023-02-28T17:28:45;25.88;;;13.23;;
34711;SDS011;20941;42.408;25.634;2023-02-28T17:31:10;25.92;;;11.82;;
34711;SDS011;20941;42.408;25.634;2023-02-28T17:33:36;22.92;;;11.50;;
34711;SDS011;20941;42.408;25.634;2023-02-28T17:36:01;23.33;;;11.07;;
34711;SDS011;20941;42.408;25.634;2023-02-28T17:38:26;21.52;;;10.55;;
34711;SDS011;20941;42.408;25.634;2023-02-28T17:40:52;17.55;;;8.98;;
34711;SDS011;20941;42.408;25.634;2023-02-28T17:43:22;13.82;;;7.55;;
34711;SDS011;20941;42.408;25.634;2023-02-28T17:45:47;14.80;;;8.15;;
34711;SDS011;20941;42.408;25.634;2023-02-28T17:48:13;17.67;;;8.02;;
34711;SDS011;20941;42.408;25.634;2023-02-28T17:50:38;16.88;;;7.93;;
34711;SDS011;20941;42.408;25.634;2023-02-28T17:53:03;13.25;;;7.72;;
34711;SDS011;20941;42.408;25.634;2023-02-28T17:55:29;12.70;;;6.22;;
34711;SDS011;20941;42.408;25.634;2023-02-28T17:57:54;12.65;;;6.85;;
34711;SDS011;20941;42.408;25.634;2023-02-28T18:00:19;14.95;;;6.53;;
34711;SDS011;20941;42.408;25.634;2023-02-28T18:02:48;11.75;;;6.82;;
34711;SDS011;20941;42.408;25.634;2023-02-28T18:05:14;14.05;;;7.47;;